sensor_id;sensor_type;location;lat;lon;timestamp;P1;durP1;ratioP1;P2;durP2;ratioP2
82513;SDS011;72858;52.130;5.584;2023-12-14T00:02:06;24.67;;;16.80;;
82513;SDS011;72858;52.130;5.584;2023-12-14T00:04:31;23.55;;;17.52;;
82513;SDS011;72858;52.130;5.584;2023-12-14T00:06:57;23.17;;;16.33;;
82513;SDS011;72858;52.130;5.584;2023-12-14T00:09:22;24.17;;;15.73;;
82513;SDS011;72858;52.130;5.584;2023-12-14T00:11:47;24.17;;;16.50;;
82513;SDS011;72858;52.130;5.584;2023-12-14T00:14:12;20.23;;;15.17;;
82513;SDS011;72858;52.130;5.584;2023-12-14T00:16:37;20.92;;;15.52;;
82513;SDS011;72858;52.130;5.584;2023-12-14T00:19:03;21.02;;;15.85;;
82513;SDS011;72858;52.130;5.584;2023-12-14T00:21:28;22.55;;;15.65;;
82513;SDS011;72858;52.130;5.584;2023-12-14T00:23:53;19.50;;;15.43;;
82513;SDS011;72858;52.130;5.584;2023-12-14T00:26:18;19.70;;;15.30;;
82513;SDS011;72858;52.130;5.584;2023-12-14T00:28:44;22.42;;;16.17;;
82513;SDS011;72858;52.130;5.584;2023-12-14T00:31:09;22.40;;;16.03;;
82513;SDS011;72858;52.130;5.584;2023-12-14T00:33:35;19.10;;;15.75;;
82513;SDS011;72858;52.130;5.584;2023-12-14T00:36:01;19.35;;;15.82;;
82513;SDS011;72858;52.130;5.584;2023-12-14T00:38:26;19.92;;;16.17;;
82513;SDS011;72858;52.130;5.584;2023-12-14T00:40:51;19.42;;;15.27;;
82513;SDS011;72858;52.130;5.584;2023-12-14T00:43:16;21.70;;;16.53;;
82513;SDS011;72858;52.130;5.584;2023-12-14T00:45:42;24.08;;;16.55;;
82513;SDS011;72858;52.130;5.584;2023-12-14T00:48:07;20.15;;;15.88;;
82513;SDS011;72858;52.130;5.584;2023-12-14T00:50:32;19.27;;;15.43;;
82513;SDS011;72858;52.130;5.584;2023-12-14T00:52:57;19.10;;;15.23;;
82513;SDS011;72858;52.130;5.584;2023-12-14T00:55:22;22.63;;;15.63;;
82513;SDS011;72858;52.130;5.584;2023-12-14T00:57:48;20.50;;;15.90;;
82513;SDS011;72858;52.130;5.584;2023-12-14T01:00:13;19.07;;;15.23;;
82513;SDS011;72858;52.130;5.584;2023-12-14T01:02:38;19.00;;;15.38;;
82513;SDS011;72858;52.130;5.584;2023-12-14T01:05:04;19.40;;;15.33;;
82513;SDS011;72858;52.130;5.584;2023-12-14T01:07:29;17.00;;;14.27;;
82513;SDS011;72858;52.130;5.584;2023-12-14T01:09:54;18.97;;;15.43;;
82513;SDS011;72858;52.130;5.584;2023-12-14T01:12:19;19.50;;;14.93;;
82513;SDS011;72858;52.130;5.584;2023-12-14T01:14:45;16.87;;;14.83;;
82513;SDS011;72858;52.130;5.584;2023-12-14T01:17:10;18.20;;;15.20;;
82513;SDS011;72858;52.130;5.584;2023-12-14T01:19:35;17.83;;;14.57;;
82513;SDS011;72858;52.130;5.584;2023-12-14T01:22:00;16.70;;;14.23;;
82513;SDS011;72858;52.130;5.584;2023-12-14T01:24:25;16.33;;;14.27;;
82513;SDS011;72858;52.130;5.584;2023-12-14T01:26:51;17.42;;;14.80;;
82513;SDS011;72858;52.130;5.584;2023-12-14T01:29:16;16.98;;;14.13;;
82513;SDS011;72858;52.130;5.584;2023-12-14T01:31:41;17.90;;;14.85;;
82513;SDS011;72858;52.130;5.584;2023-12-14T01:34:06;17.47;;;14.07;;
82513;SDS011;72858;52.130;5.584;2023-12-14T01:36:31;17.63;;;14.02;;
82513;SDS011;72858;52.130;5.584;2023-12-14T01:38:57;15.30;;;13.70;;
82513;SDS011;72858;52.130;5.584;2023-12-14T01:41:22;15.65;;;12.85;;
82513;SDS011;72858;52.130;5.584;2023-12-14T01:43:47;15.02;;;13.38;;
82513;SDS011;72858;52.130;5.584;2023-12-14T01:46:12;19.02;;;14.85;;
82513;SDS011;72858;52.130;5.584;2023-12-14T01:48:39;15.48;;;13.23;;
82513;SDS011;72858;52.130;5.584;2023-12-14T01:51:05;15.77;;;13.37;;
82513;SDS011;72858;52.130;5.584;2023-12-14T01:53:30;16.15;;;13.32;;
82513;SDS011;72858;52.130;5.584;2023-12-14T01:55:55;16.40;;;14.05;;
82513;SDS011;72858;52.130;5.584;2023-12-14T01:58:20;16.70;;;13.48;;
82513;SDS011;72858;52.130;5.584;2023-12-14T02:00:48;16.87;;;14.00;;
82513;SDS011;72858;52.130;5.584;2023-12-14T02:03:14;16.42;;;13.68;;
82513;SDS011;72858;52.130;5.584;2023-12-14T02:05:40;16.63;;;14.07;;
82513;SDS011;72858;52.130;5.584;2023-12-14T02:08:05;16.20;;;13.23;;
82513;SDS011;72858;52.130;5.584;2023-12-14T02:10:30;17.33;;;14.60;;
82513;SDS011;72858;52.130;5.584;2023-12-14T02:12:55;17.27;;;14.83;;
82513;SDS011;72858;52.130;5.584;2023-12-14T02:15:20;18.40;;;15.40;;
82513;SDS011;72858;52.130;5.584;2023-12-14T02:17:46;19.73;;;16.10;;
82513;SDS011;72858;52.130;5.584;2023-12-14T02:20:11;20.87;;;16.03;;
82513;SDS011;72858;52.130;5.584;2023-12-14T02:22:52;18.27;;;15.57;;
82513;SDS011;72858;52.130;5.584;2023-12-14T02:25:18;19.17;;;15.55;;
82513;SDS011;72858;52.130;5.584;2023-12-14T02:27:44;19.00;;;15.30;;
82513;SDS011;72858;52.130;5.584;2023-12-14T02:30:09;18.15;;;15.35;;
82513;SDS011;72858;52.130;5.584;2023-12-14T02:32:35;21.15;;;15.85;;
82513;SDS011;72858;52.130;5.584;2023-12-14T02:35:00;19.25;;;15.57;;
82513;SDS011;72858;52.130;5.584;2023-12-14T02:37:25;18.03;;;14.77;;
82513;SDS011;72858;52.130;5.584;2023-12-14T02:39:50;19.97;;;16.40;;
82513;SDS011;72858;52.130;5.584;2023-12-14T02:42:16;20.80;;;15.95;;
82513;SDS011;72858;52.130;5.584;2023-12-14T02:44:41;25.45;;;17.55;;
82513;SDS011;72858;52.130;5.584;2023-12-14T02:47:06;20.13;;;16.00;;
82513;SDS011;72858;52.130;5.584;2023-12-14T02:49:32;21.30;;;16.48;;
82513;SDS011;72858;52.130;5.584;2023-12-14T02:51:58;20.45;;;15.88;;
82513;SDS011;72858;52.130;5.584;2023-12-14T02:54:23;20.73;;;17.30;;
82513;SDS011;72858;52.130;5.584;2023-12-14T02:56:48;21.30;;;17.10;;
82513;SDS011;72858;52.130;5.584;2023-12-14T02:59:14;21.67;;;16.67;;
82513;SDS011;72858;52.130;5.584;2023-12-14T03:01:39;21.13;;;17.23;;
82513;SDS011;72858;52.130;5.584;2023-12-14T03:04:04;19.65;;;16.08;;
82513;SDS011;72858;52.130;5.584;2023-12-14T03:06:29;22.10;;;17.27;;
82513;SDS011;72858;52.130;5.584;2023-12-14T03:08:54;21.13;;;16.57;;
82513;SDS011;72858;52.130;5.584;2023-12-14T03:11:23;20.83;;;16.00;;
82513;SDS011;72858;52.130;5.584;2023-12-14T03:13:48;20.75;;;16.52;;
82513;SDS011;72858;52.130;5.584;2023-12-14T03:16:13;22.73;;;17.98;;
82513;SDS011;72858;52.130;5.584;2023-12-14T03:18:39;22.00;;;16.60;;
82513;SDS011;72858;52.130;5.584;2023-12-14T03:21:04;20.80;;;16.60;;
82513;SDS011;72858;52.130;5.584;2023-12-14T03:23:29;19.95;;;16.33;;
82513;SDS011;72858;52.130;5.584;2023-12-14T03:25:54;22.13;;;16.50;;
82513;SDS011;72858;52.130;5.584;2023-12-14T03:28:19;18.35;;;16.25;;
82513;SDS011;72858;52.130;5.584;2023-12-14T03:30:45;20.75;;;16.55;;
82513;SDS011;72858;52.130;5.584;2023-12-14T03:33:10;21.73;;;17.10;;
82513;SDS011;72858;52.130;5.584;2023-12-14T03:35:35;18.42;;;16.17;;
82513;SDS011;72858;52.130;5.584;2023-12-14T03:38:01;22.08;;;17.30;;
82513;SDS011;72858;52.130;5.584;2023-12-14T03:40:26;20.65;;;15.98;;
82513;SDS011;72858;52.130;5.584;2023-12-14T03:42:51;21.50;;;15.50;;
82513;SDS011;72858;52.130;5.584;2023-12-14T03:45:16;22.83;;;16.52;;
82513;SDS011;72858;52.130;5.584;2023-12-14T03:47:41;22.60;;;16.57;;
82513;SDS011;72858;52.130;5.584;2023-12-14T03:50:07;17.00;;;15.13;;
82513;SDS011;72858;52.130;5.584;2023-12-14T03:52:32;20.98;;;16.00;;
82513;SDS011;72858;52.130;5.584;2023-12-14T03:54:57;16.43;;;14.70;;
82513;SDS011;72858;52.130;5.584;2023-12-14T03:57:23;22.15;;;16.08;;
82513;SDS011;72858;52.130;5.584;2023-12-14T03:59:48;22.47;;;15.10;;
82513;SDS011;72858;52.130;5.584;2023-12-14T04:02:13;18.67;;;15.70;;
82513;SDS011;72858;52.130;5.584;2023-12-14T04:04:38;19.40;;;15.83;;
82513;SDS011;72858;52.130;5.584;2023-12-14T04:07:04;18.27;;;15.00;;
82513;SDS011;72858;52.130;5.584;2023-12-14T04:09:29;16.40;;;14.30;;
82513;SDS011;72858;52.130;5.584;2023-12-14T04:11:54;18.93;;;14.23;;
82513;SDS011;72858;52.130;5.584;2023-12-14T04:14:19;18.83;;;14.43;;
82513;SDS011;72858;52.130;5.584;2023-12-14T04:16:44;15.83;;;14.13;;
82513;SDS011;72858;52.130;5.584;2023-12-14T04:19:10;17.50;;;14.83;;
82513;SDS011;72858;52.130;5.584;2023-12-14T04:21:35;19.33;;;15.10;;
82513;SDS011;72858;52.130;5.584;2023-12-14T04:24:00;18.33;;;14.80;;
82513;SDS011;72858;52.130;5.584;2023-12-14T04:26:26;18.37;;;15.87;;
82513;SDS011;72858;52.130;5.584;2023-12-14T04:28:52;17.30;;;15.10;;
82513;SDS011;72858;52.130;5.584;2023-12-14T04:31:17;19.95;;;15.48;;
82513;SDS011;72858;52.130;5.584;2023-12-14T04:33:42;18.93;;;15.40;;
82513;SDS011;72858;52.130;5.584;2023-12-14T04:36:08;19.15;;;15.10;;
82513;SDS011;72858;52.130;5.584;2023-12-14T04:38:33;18.30;;;15.23;;
82513;SDS011;72858;52.130;5.584;2023-12-14T04:40:58;19.33;;;14.95;;
82513;SDS011;72858;52.130;5.584;2023-12-14T04:43:23;20.30;;;15.17;;
82513;SDS011;72858;52.130;5.584;2023-12-14T04:45:48;20.03;;;14.97;;
82513;SDS011;72858;52.130;5.584;2023-12-14T04:48:14;19.43;;;15.20;;
82513;SDS011;72858;52.130;5.584;2023-12-14T04:50:39;17.97;;;15.13;;
82513;SDS011;72858;52.130;5.584;2023-12-14T04:53:04;21.23;;;14.67;;
82513;SDS011;72858;52.130;5.584;2023-12-14T04:55:29;20.48;;;15.30;;
82513;SDS011;72858;52.130;5.584;2023-12-14T04:57:54;21.23;;;14.27;;
82513;SDS011;72858;52.130;5.584;2023-12-14T05:00:20;20.03;;;15.33;;
82513;SDS011;72858;52.130;5.584;2023-12-14T05:02:48;18.77;;;14.27;;
82513;SDS011;72858;52.130;5.584;2023-12-14T05:05:16;19.20;;;14.60;;
82513;SDS011;72858;52.130;5.584;2023-12-14T05:07:41;23.67;;;15.45;;
82513;SDS011;72858;52.130;5.584;2023-12-14T05:10:06;28.38;;;17.88;;
82513;SDS011;72858;52.130;5.584;2023-12-14T05:12:32;23.98;;;15.80;;
82513;SDS011;72858;52.130;5.584;2023-12-14T05:14:57;18.77;;;14.47;;
82513;SDS011;72858;52.130;5.584;2023-12-14T05:17:22;21.50;;;15.65;;
82513;SDS011;72858;52.130;5.584;2023-12-14T05:19:47;18.70;;;14.90;;
82513;SDS011;72858;52.130;5.584;2023-12-14T05:22:13;23.30;;;14.82;;
82513;SDS011;72858;52.130;5.584;2023-12-14T05:24:38;23.47;;;14.53;;
82513;SDS011;72858;52.130;5.584;2023-12-14T05:27:03;23.80;;;15.93;;
82513;SDS011;72858;52.130;5.584;2023-12-14T05:29:28;20.50;;;14.88;;
82513;SDS011;72858;52.130;5.584;2023-12-14T05:31:54;20.67;;;14.27;;
82513;SDS011;72858;52.130;5.584;2023-12-14T05:34:21;21.73;;;15.57;;
82513;SDS011;72858;52.130;5.584;2023-12-14T05:36:46;19.23;;;14.65;;
82513;SDS011;72858;52.130;5.584;2023-12-14T05:39:12;24.77;;;14.97;;
82513;SDS011;72858;52.130;5.584;2023-12-14T05:41:40;23.47;;;15.30;;
82513;SDS011;72858;52.130;5.584;2023-12-14T05:44:06;20.92;;;15.05;;
82513;SDS011;72858;52.130;5.584;2023-12-14T05:46:31;19.10;;;14.23;;
82513;SDS011;72858;52.130;5.584;2023-12-14T05:48:56;18.77;;;13.63;;
82513;SDS011;72858;52.130;5.584;2023-12-14T05:51:31;19.23;;;13.90;;
82513;SDS011;72858;52.130;5.584;2023-12-14T05:53:56;17.50;;;13.43;;
82513;SDS011;72858;52.130;5.584;2023-12-14T05:56:22;17.48;;;12.80;;
82513;SDS011;72858;52.130;5.584;2023-12-14T05:58:47;17.70;;;13.47;;
82513;SDS011;72858;52.130;5.584;2023-12-14T06:01:13;16.00;;;12.90;;
82513;SDS011;72858;52.130;5.584;2023-12-14T06:03:38;14.30;;;12.13;;
82513;SDS011;72858;52.130;5.584;2023-12-14T06:06:03;15.52;;;12.32;;
82513;SDS011;72858;52.130;5.584;2023-12-14T06:08:29;14.20;;;11.90;;
82513;SDS011;72858;52.130;5.584;2023-12-14T06:10:54;15.47;;;11.67;;
82513;SDS011;72858;52.130;5.584;2023-12-14T06:13:19;15.37;;;12.00;;
82513;SDS011;72858;52.130;5.584;2023-12-14T06:15:46;13.35;;;11.90;;
82513;SDS011;72858;52.130;5.584;2023-12-14T06:18:11;14.53;;;11.63;;
82513;SDS011;72858;52.130;5.584;2023-12-14T06:20:36;12.73;;;10.90;;
82513;SDS011;72858;52.130;5.584;2023-12-14T06:23:01;14.03;;;11.23;;
82513;SDS011;72858;52.130;5.584;2023-12-14T06:25:27;13.98;;;11.30;;
82513;SDS011;72858;52.130;5.584;2023-12-14T06:27:52;12.35;;;10.95;;
82513;SDS011;72858;52.130;5.584;2023-12-14T06:30:20;12.17;;;10.73;;
82513;SDS011;72858;52.130;5.584;2023-12-14T06:32:45;13.00;;;10.63;;
82513;SDS011;72858;52.130;5.584;2023-12-14T06:35:10;12.25;;;10.93;;
82513;SDS011;72858;52.130;5.584;2023-12-14T06:37:36;13.68;;;10.73;;
82513;SDS011;72858;52.130;5.584;2023-12-14T06:40:01;13.75;;;11.45;;
82513;SDS011;72858;52.130;5.584;2023-12-14T06:42:27;16.23;;;11.30;;
82513;SDS011;72858;52.130;5.584;2023-12-14T06:44:52;14.50;;;11.00;;
82513;SDS011;72858;52.130;5.584;2023-12-14T06:47:17;15.07;;;11.40;;
82513;SDS011;72858;52.130;5.584;2023-12-14T06:49:43;13.70;;;11.50;;
82513;SDS011;72858;52.130;5.584;2023-12-14T06:52:08;16.92;;;12.23;;
82513;SDS011;72858;52.130;5.584;2023-12-14T06:54:34;14.70;;;12.23;;
82513;SDS011;72858;52.130;5.584;2023-12-14T06:56:59;16.50;;;12.60;;
82513;SDS011;72858;52.130;5.584;2023-12-14T06:59:25;13.73;;;11.77;;
82513;SDS011;72858;52.130;5.584;2023-12-14T07:01:50;16.17;;;13.07;;
82513;SDS011;72858;52.130;5.584;2023-12-14T07:04:15;15.02;;;12.48;;
82513;SDS011;72858;52.130;5.584;2023-12-14T07:06:40;16.38;;;12.77;;
82513;SDS011;72858;52.130;5.584;2023-12-14T07:09:06;15.10;;;12.23;;
82513;SDS011;72858;52.130;5.584;2023-12-14T07:11:31;14.30;;;12.50;;
82513;SDS011;72858;52.130;5.584;2023-12-14T07:13:57;16.50;;;12.85;;
82513;SDS011;72858;52.130;5.584;2023-12-14T07:16:22;15.53;;;12.23;;
82513;SDS011;72858;52.130;5.584;2023-12-14T07:18:47;16.52;;;12.45;;
82513;SDS011;72858;52.130;5.584;2023-12-14T07:21:13;18.77;;;12.93;;
82513;SDS011;72858;52.130;5.584;2023-12-14T07:23:38;17.20;;;12.83;;
82513;SDS011;72858;52.130;5.584;2023-12-14T07:26:03;15.73;;;12.10;;
82513;SDS011;72858;52.130;5.584;2023-12-14T07:28:29;15.77;;;13.05;;
82513;SDS011;72858;52.130;5.584;2023-12-14T07:30:54;14.90;;;11.85;;
82513;SDS011;72858;52.130;5.584;2023-12-14T07:33:20;15.48;;;11.27;;
82513;SDS011;72858;52.130;5.584;2023-12-14T07:35:45;15.88;;;12.52;;
82513;SDS011;72858;52.130;5.584;2023-12-14T07:38:10;15.00;;;12.85;;
82513;SDS011;72858;52.130;5.584;2023-12-14T07:40:35;16.10;;;12.52;;
82513;SDS011;72858;52.130;5.584;2023-12-14T07:43:01;17.88;;;12.68;;
82513;SDS011;72858;52.130;5.584;2023-12-14T07:45:26;15.27;;;12.65;;
82513;SDS011;72858;52.130;5.584;2023-12-14T07:47:51;13.77;;;12.30;;
82513;SDS011;72858;52.130;5.584;2023-12-14T07:50:16;14.70;;;12.43;;
82513;SDS011;72858;52.130;5.584;2023-12-14T07:52:42;18.35;;;12.43;;
82513;SDS011;72858;52.130;5.584;2023-12-14T07:55:07;17.42;;;12.07;;
82513;SDS011;72858;52.130;5.584;2023-12-14T07:57:32;14.52;;;12.43;;
82513;SDS011;72858;52.130;5.584;2023-12-14T07:59:57;15.93;;;12.18;;
82513;SDS011;72858;52.130;5.584;2023-12-14T08:02:23;15.05;;;11.65;;
82513;SDS011;72858;52.130;5.584;2023-12-14T08:04:48;15.23;;;12.35;;
82513;SDS011;72858;52.130;5.584;2023-12-14T08:07:13;13.77;;;11.88;;
82513;SDS011;72858;52.130;5.584;2023-12-14T08:09:38;13.07;;;11.63;;
82513;SDS011;72858;52.130;5.584;2023-12-14T08:12:04;15.57;;;12.27;;
82513;SDS011;72858;52.130;5.584;2023-12-14T08:14:29;18.90;;;13.27;;
82513;SDS011;72858;52.130;5.584;2023-12-14T08:16:54;16.27;;;13.10;;
82513;SDS011;72858;52.130;5.584;2023-12-14T08:19:19;15.07;;;11.80;;
82513;SDS011;72858;52.130;5.584;2023-12-14T08:21:44;14.45;;;12.00;;
82513;SDS011;72858;52.130;5.584;2023-12-14T08:24:10;15.10;;;11.97;;
82513;SDS011;72858;52.130;5.584;2023-12-14T08:26:35;17.55;;;12.65;;
82513;SDS011;72858;52.130;5.584;2023-12-14T08:29:00;17.37;;;13.03;;
82513;SDS011;72858;52.130;5.584;2023-12-14T08:31:26;18.17;;;13.32;;
82513;SDS011;72858;52.130;5.584;2023-12-14T08:33:51;15.70;;;12.98;;
82513;SDS011;72858;52.130;5.584;2023-12-14T08:36:17;17.92;;;12.77;;
82513;SDS011;72858;52.130;5.584;2023-12-14T08:38:43;15.73;;;13.07;;
82513;SDS011;72858;52.130;5.584;2023-12-14T08:41:08;16.73;;;12.68;;
82513;SDS011;72858;52.130;5.584;2023-12-14T08:43:33;18.00;;;13.43;;
82513;SDS011;72858;52.130;5.584;2023-12-14T08:46:00;14.90;;;12.90;;
82513;SDS011;72858;52.130;5.584;2023-12-14T08:48:26;15.02;;;12.70;;
82513;SDS011;72858;52.130;5.584;2023-12-14T08:50:53;17.00;;;12.87;;
82513;SDS011;72858;52.130;5.584;2023-12-14T08:53:18;17.60;;;13.20;;
82513;SDS011;72858;52.130;5.584;2023-12-14T08:55:43;15.27;;;12.47;;
82513;SDS011;72858;52.130;5.584;2023-12-14T08:58:08;17.80;;;14.02;;
82513;SDS011;72858;52.130;5.584;2023-12-14T09:00:33;14.97;;;12.77;;
82513;SDS011;72858;52.130;5.584;2023-12-14T09:02:59;15.18;;;12.98;;
82513;SDS011;72858;52.130;5.584;2023-12-14T09:05:24;14.60;;;13.10;;
82513;SDS011;72858;52.130;5.584;2023-12-14T09:07:49;17.70;;;13.15;;
82513;SDS011;72858;52.130;5.584;2023-12-14T09:10:17;15.88;;;12.40;;
82513;SDS011;72858;52.130;5.584;2023-12-14T09:12:42;15.83;;;13.13;;
82513;SDS011;72858;52.130;5.584;2023-12-14T09:15:09;16.70;;;13.98;;
82513;SDS011;72858;52.130;5.584;2023-12-14T09:17:34;14.63;;;12.45;;
82513;SDS011;72858;52.130;5.584;2023-12-14T09:20:00;18.42;;;13.63;;
82513;SDS011;72858;52.130;5.584;2023-12-14T09:22:25;17.23;;;12.88;;
82513;SDS011;72858;52.130;5.584;2023-12-14T09:24:50;18.33;;;13.63;;
82513;SDS011;72858;52.130;5.584;2023-12-14T09:27:15;22.90;;;14.30;;
82513;SDS011;72858;52.130;5.584;2023-12-14T09:29:41;16.80;;;13.40;;
82513;SDS011;72858;52.130;5.584;2023-12-14T09:32:07;17.23;;;12.67;;
82513;SDS011;72858;52.130;5.584;2023-12-14T09:34:32;16.92;;;12.50;;
82513;SDS011;72858;52.130;5.584;2023-12-14T09:36:58;18.93;;;14.27;;
82513;SDS011;72858;52.130;5.584;2023-12-14T09:39:24;16.37;;;12.57;;
82513;SDS011;72858;52.130;5.584;2023-12-14T09:41:50;14.80;;;12.18;;
82513;SDS011;72858;52.130;5.584;2023-12-14T09:44:15;19.00;;;12.60;;
82513;SDS011;72858;52.130;5.584;2023-12-14T09:46:41;16.67;;;12.65;;
82513;SDS011;72858;52.130;5.584;2023-12-14T09:49:11;14.73;;;12.05;;
82513;SDS011;72858;52.130;5.584;2023-12-14T09:51:37;18.92;;;13.00;;
82513;SDS011;72858;52.130;5.584;2023-12-14T09:54:03;14.50;;;12.55;;
82513;SDS011;72858;52.130;5.584;2023-12-14T09:56:28;14.38;;;12.07;;
82513;SDS011;72858;52.130;5.584;2023-12-14T09:58:53;14.38;;;12.32;;
82513;SDS011;72858;52.130;5.584;2023-12-14T10:01:22;15.97;;;12.53;;
82513;SDS011;72858;52.130;5.584;2023-12-14T10:03:49;14.77;;;12.27;;
82513;SDS011;72858;52.130;5.584;2023-12-14T10:06:14;15.00;;;12.33;;
82513;SDS011;72858;52.130;5.584;2023-12-14T10:08:39;13.00;;;11.57;;
82513;SDS011;72858;52.130;5.584;2023-12-14T10:11:05;15.07;;;11.70;;
82513;SDS011;72858;52.130;5.584;2023-12-14T10:13:39;12.32;;;11.02;;
82513;SDS011;72858;52.130;5.584;2023-12-14T10:16:04;17.17;;;12.32;;
82513;SDS011;72858;52.130;5.584;2023-12-14T10:18:31;15.68;;;12.20;;
82513;SDS011;72858;52.130;5.584;2023-12-14T10:20:56;14.40;;;12.55;;
82513;SDS011;72858;52.130;5.584;2023-12-14T10:23:21;14.27;;;11.70;;
82513;SDS011;72858;52.130;5.584;2023-12-14T10:25:47;14.48;;;11.85;;
82513;SDS011;72858;52.130;5.584;2023-12-14T10:28:18;15.90;;;11.95;;
82513;SDS011;72858;52.130;5.584;2023-12-14T10:30:43;12.90;;;11.13;;
82513;SDS011;72858;52.130;5.584;2023-12-14T10:33:08;12.90;;;11.47;;
82513;SDS011;72858;52.130;5.584;2023-12-14T10:35:34;13.45;;;11.40;;
82513;SDS011;72858;52.130;5.584;2023-12-14T10:38:02;14.27;;;11.73;;
82513;SDS011;72858;52.130;5.584;2023-12-14T10:40:29;12.70;;;11.32;;
82513;SDS011;72858;52.130;5.584;2023-12-14T10:42:55;13.60;;;11.77;;
82513;SDS011;72858;52.130;5.584;2023-12-14T10:45:24;12.98;;;11.48;;
82513;SDS011;72858;52.130;5.584;2023-12-14T10:47:52;12.77;;;11.43;;
82513;SDS011;72858;52.130;5.584;2023-12-14T10:50:17;11.88;;;10.65;;
82513;SDS011;72858;52.130;5.584;2023-12-14T10:52:43;11.57;;;10.32;;
82513;SDS011;72858;52.130;5.584;2023-12-14T10:55:11;14.15;;;11.70;;
82513;SDS011;72858;52.130;5.584;2023-12-14T10:57:38;13.02;;;11.43;;
82513;SDS011;72858;52.130;5.584;2023-12-14T11:00:04;12.32;;;11.02;;
82513;SDS011;72858;52.130;5.584;2023-12-14T11:02:37;13.75;;;11.57;;
82513;SDS011;72858;52.130;5.584;2023-12-14T11:05:02;17.83;;;11.75;;
82513;SDS011;72858;52.130;5.584;2023-12-14T11:07:44;14.32;;;11.10;;
82513;SDS011;72858;52.130;5.584;2023-12-14T11:10:09;15.38;;;12.15;;
82513;SDS011;72858;52.130;5.584;2023-12-14T11:12:36;12.77;;;11.10;;
82513;SDS011;72858;52.130;5.584;2023-12-14T11:15:01;12.43;;;10.98;;
82513;SDS011;72858;52.130;5.584;2023-12-14T11:17:28;13.00;;;11.13;;
82513;SDS011;72858;52.130;5.584;2023-12-14T11:19:54;15.15;;;10.93;;
82513;SDS011;72858;52.130;5.584;2023-12-14T11:22:23;13.63;;;11.60;;
82513;SDS011;72858;52.130;5.584;2023-12-14T11:24:52;12.55;;;11.25;;
82513;SDS011;72858;52.130;5.584;2023-12-14T11:27:28;12.65;;;11.35;;
82513;SDS011;72858;52.130;5.584;2023-12-14T11:29:54;13.20;;;10.98;;
82513;SDS011;72858;52.130;5.584;2023-12-14T11:32:19;12.63;;;10.73;;
82513;SDS011;72858;52.130;5.584;2023-12-14T11:34:45;12.23;;;10.57;;
82513;SDS011;72858;52.130;5.584;2023-12-14T11:37:11;15.18;;;11.65;;
82513;SDS011;72858;52.130;5.584;2023-12-14T11:39:36;15.02;;;12.68;;
82513;SDS011;72858;52.130;5.584;2023-12-14T11:42:02;14.05;;;11.40;;
82513;SDS011;72858;52.130;5.584;2023-12-14T11:44:28;16.83;;;11.35;;
82513;SDS011;72858;52.130;5.584;2023-12-14T11:46:53;15.43;;;11.05;;
82513;SDS011;72858;52.130;5.584;2023-12-14T11:49:19;14.77;;;12.85;;
82513;SDS011;72858;52.130;5.584;2023-12-14T11:51:47;15.23;;;13.63;;
82513;SDS011;72858;52.130;5.584;2023-12-14T11:54:13;17.45;;;12.77;;
82513;SDS011;72858;52.130;5.584;2023-12-14T11:56:38;14.10;;;11.90;;
82513;SDS011;72858;52.130;5.584;2023-12-14T11:59:03;16.13;;;12.13;;
82513;SDS011;72858;52.130;5.584;2023-12-14T12:01:29;18.85;;;12.95;;
82513;SDS011;72858;52.130;5.584;2023-12-14T12:03:56;14.77;;;11.93;;
82513;SDS011;72858;52.130;5.584;2023-12-14T12:06:25;16.73;;;11.02;;
82513;SDS011;72858;52.130;5.584;2023-12-14T12:08:52;21.33;;;13.20;;
82513;SDS011;72858;52.130;5.584;2023-12-14T12:11:18;19.65;;;12.65;;
82513;SDS011;72858;52.130;5.584;2023-12-14T12:13:43;19.05;;;12.35;;
82513;SDS011;72858;52.130;5.584;2023-12-14T12:16:09;14.40;;;10.98;;
82513;SDS011;72858;52.130;5.584;2023-12-14T12:18:34;17.10;;;12.33;;
82513;SDS011;72858;52.130;5.584;2023-12-14T12:20:59;15.97;;;11.87;;
82513;SDS011;72858;52.130;5.584;2023-12-14T12:23:28;12.15;;;10.90;;
82513;SDS011;72858;52.130;5.584;2023-12-14T12:25:54;18.90;;;13.02;;
82513;SDS011;72858;52.130;5.584;2023-12-14T12:28:20;13.27;;;11.88;;
82513;SDS011;72858;52.130;5.584;2023-12-14T12:30:45;16.42;;;12.65;;
82513;SDS011;72858;52.130;5.584;2023-12-14T12:33:11;15.93;;;12.13;;
82513;SDS011;72858;52.130;5.584;2023-12-14T12:35:37;14.52;;;12.75;;
82513;SDS011;72858;52.130;5.584;2023-12-14T12:38:02;17.73;;;12.20;;
82513;SDS011;72858;52.130;5.584;2023-12-14T12:40:28;17.23;;;13.75;;
82513;SDS011;72858;52.130;5.584;2023-12-14T12:42:55;19.27;;;13.07;;
82513;SDS011;72858;52.130;5.584;2023-12-14T12:45:20;13.93;;;11.97;;
82513;SDS011;72858;52.130;5.584;2023-12-14T12:47:47;16.20;;;11.30;;
82513;SDS011;72858;52.130;5.584;2023-12-14T12:50:12;17.02;;;13.02;;
82513;SDS011;72858;52.130;5.584;2023-12-14T12:52:38;19.73;;;12.68;;
82513;SDS011;72858;52.130;5.584;2023-12-14T12:55:06;47.17;;;34.30;;
82513;SDS011;72858;52.130;5.584;2023-12-14T12:57:32;15.98;;;14.27;;
82513;SDS011;72858;52.130;5.584;2023-12-14T12:59:57;16.57;;;13.10;;
82513;SDS011;72858;52.130;5.584;2023-12-14T13:02:22;14.73;;;12.17;;
82513;SDS011;72858;52.130;5.584;2023-12-14T13:04:48;17.55;;;13.25;;
82513;SDS011;72858;52.130;5.584;2023-12-14T13:07:13;16.03;;;12.77;;
82513;SDS011;72858;52.130;5.584;2023-12-14T13:09:38;15.43;;;12.40;;
82513;SDS011;72858;52.130;5.584;2023-12-14T13:12:04;19.30;;;13.05;;
82513;SDS011;72858;52.130;5.584;2023-12-14T13:14:29;15.85;;;13.15;;
82513;SDS011;72858;52.130;5.584;2023-12-14T13:16:56;13.15;;;11.77;;
82513;SDS011;72858;52.130;5.584;2023-12-14T13:19:23;16.60;;;12.45;;
82513;SDS011;72858;52.130;5.584;2023-12-14T13:21:48;17.15;;;12.82;;
82513;SDS011;72858;52.130;5.584;2023-12-14T13:24:13;16.93;;;12.07;;
82513;SDS011;72858;52.130;5.584;2023-12-14T13:26:39;18.00;;;13.07;;
82513;SDS011;72858;52.130;5.584;2023-12-14T13:29:04;17.42;;;13.32;;
82513;SDS011;72858;52.130;5.584;2023-12-14T13:31:29;16.40;;;12.60;;
82513;SDS011;72858;52.130;5.584;2023-12-14T13:33:54;17.73;;;12.63;;
82513;SDS011;72858;52.130;5.584;2023-12-14T13:36:20;17.33;;;13.17;;
82513;SDS011;72858;52.130;5.584;2023-12-14T13:38:45;19.98;;;13.98;;
82513;SDS011;72858;52.130;5.584;2023-12-14T13:41:10;18.08;;;13.25;;
82513;SDS011;72858;52.130;5.584;2023-12-14T13:43:35;13.60;;;12.20;;
82513;SDS011;72858;52.130;5.584;2023-12-14T13:46:00;16.83;;;13.00;;
82513;SDS011;72858;52.130;5.584;2023-12-14T13:48:26;19.60;;;13.65;;
82513;SDS011;72858;52.130;5.584;2023-12-14T13:50:53;17.23;;;14.45;;
82513;SDS011;72858;52.130;5.584;2023-12-14T13:53:18;18.00;;;13.80;;
82513;SDS011;72858;52.130;5.584;2023-12-14T13:55:43;18.57;;;14.37;;
82513;SDS011;72858;52.130;5.584;2023-12-14T13:58:08;17.03;;;13.37;;
82513;SDS011;72858;52.130;5.584;2023-12-14T14:00:33;20.92;;;15.43;;
82513;SDS011;72858;52.130;5.584;2023-12-14T14:02:59;27.70;;;18.17;;
82513;SDS011;72858;52.130;5.584;2023-12-14T14:05:25;16.75;;;13.70;;
82513;SDS011;72858;52.130;5.584;2023-12-14T14:07:50;18.53;;;14.70;;
82513;SDS011;72858;52.130;5.584;2023-12-14T14:10:16;18.70;;;14.45;;
82513;SDS011;72858;52.130;5.584;2023-12-14T14:12:41;22.42;;;16.65;;